Time;durP1;ratioP1;P1;durP2;ratioP2;P2;SDS_P1;SDS_P2;PMS_P1;PMS_P2;Temp;Humidity;BMP_temperature;BMP_pressure;BME280_temperature;BME280_humidity;BME280_pressure;Samples;Min_cycle;Max_cycle;Signal;HPM_P1;HPM_P2
2022/10/06 00:00:17;;;;;;;10.10;5.90;;;14.10;99.90;;;;;;5010365;28;20724;-73
2022/10/06 00:02:45;;;;;;;7.67;4.93;;;14.10;99.90;;;;;;5010102;28;20399;-73
2022/10/06 00:05:12;;;;;;;6.07;5.10;;;14.10;99.90;;;;;;5008450;28;20245;-73
2022/10/06 00:07:39;;;;;;;10.70;5.30;;;14.10;99.90;;;;;;5008365;28;20210;-73
2022/10/06 00:10:08;;;;;;;9.97;5.60;;;14.10;99.90;;;;;;5009245;28;20286;-72
2022/10/06 00:12:40;;;;;;;7.80;5.37;;;14.10;99.90;;;;;;5010599;28;20219;-73
2022/10/06 00:15:10;;;;;;;9.40;5.20;;;14.10;99.90;;;;;;5008600;28;20680;-73
2022/10/06 00:17:38;;;;;;;6.30;4.40;;;14.10;99.90;;;;;;5008930;28;20682;-73
2022/10/06 00:20:07;;;;;;;10.87;5.87;;;14.10;99.90;;;;;;5008302;28;20241;-73
2022/10/06 00:22:34;;;;;;;9.13;5.50;;;14.10;99.90;;;;;;5007915;28;20563;-73
2022/10/06 00:25:02;;;;;;;7.83;5.50;;;14.10;99.90;;;;;;5008959;28;20297;-73
2022/10/06 00:27:34;;;;;;;6.13;4.73;;;14.10;99.90;;;;;;5010316;28;20199;-74
2022/10/06 00:30:02;;;;;;;7.53;5.83;;;14.10;99.90;;;;;;5009571;28;20687;-73
2022/10/06 00:32:30;;;;;;;7.10;5.07;;;14.10;99.90;;;;;;5009768;28;20337;-74
2022/10/06 00:34:58;;;;;;;9.00;5.43;;;14.10;99.90;;;;;;5009255;28;20202;-73
2022/10/06 00:37:25;;;;;;;10.30;6.07;;;14.10;99.90;;;;;;5008667;28;20207;-74
2022/10/06 00:39:53;;;;;;;10.10;4.93;;;14.10;99.90;;;;;;5009153;28;20252;-73
2022/10/06 00:42:25;;;;;;;6.23;4.43;;;14.10;99.90;;;;;;5007727;28;20203;-73
2022/10/06 00:44:53;;;;;;;8.87;5.13;;;14.10;99.90;;;;;;5009317;28;20190;-73
2022/10/06 00:47:23;;;;;;;6.10;5.07;;;14.10;99.90;;;;;;5009838;28;20658;-73
2022/10/06 00:49:54;;;;;;;8.73;5.63;;;14.10;99.90;;;;;;5010125;28;20226;-73
2022/10/06 00:52:25;;;;;;;6.67;4.50;;;14.10;99.90;;;;;;5008510;28;20436;-73
2022/10/06 00:54:52;;;;;;;8.87;5.53;;;14.10;99.90;;;;;;5005611;28;20704;-73
2022/10/06 00:57:20;;;;;;;15.67;5.57;;;14.10;99.90;;;;;;5010131;28;20222;-73
2022/10/06 00:59:47;;;;;;;7.90;4.83;;;14.10;99.90;;;;;;5008317;28;20211;-73
2022/10/06 01:02:21;;;;;;;6.77;5.07;;;14.10;99.90;;;;;;5004542;28;20198;-73
2022/10/06 01:04:54;;;;;;;6.90;4.90;;;14.10;99.90;;;;;;5009938;28;20233;-73
2022/10/06 01:07:24;;;;;;;7.23;4.80;;;14.10;99.90;;;;;;5008873;28;20224;-73
2022/10/06 01:09:52;;;;;;;7.33;5.03;;;14.10;99.90;;;;;;5007129;28;20214;-73
2022/10/06 01:12:22;;;;;;;4.60;4.10;;;14.10;99.90;;;;;;5009272;28;20289;-73
2022/10/06 01:14:49;;;;;;;5.87;4.33;;;14.10;99.90;;;;;;5007808;28;20222;-72
2022/10/06 01:17:22;;;;;;;7.63;4.90;;;14.10;99.90;;;;;;5008000;28;20667;-73
2022/10/06 01:19:54;;;;;;;6.20;4.60;;;14.10;99.90;;;;;;5008057;28;20744;-72
2022/10/06 01:22:30;;;;;;;11.67;4.93;;;14.10;99.90;;;;;;5008293;28;20702;-72
2022/10/06 01:24:58;;;;;;;7.57;4.40;;;14.10;99.90;;;;;;5007105;28;20201;-73
2022/10/06 01:27:27;;;;;;;5.80;4.63;;;14.00;99.90;;;;;;5007974;28;20199;-72
2022/10/06 01:29:56;;;;;;;10.10;5.10;;;14.10;99.90;;;;;;5020394;28;20202;-72
2022/10/06 01:32:26;;;;;;;5.70;4.53;;;14.10;99.90;;;;;;5008267;28;20823;-72
2022/10/06 01:34:54;;;;;;;5.70;4.27;;;14.10;99.90;;;;;;5007730;28;20246;-73
2022/10/06 01:37:22;;;;;;;9.97;5.27;;;14.10;99.90;;;;;;5007903;28;20253;-73
2022/10/06 01:39:50;;;;;;;7.73;5.37;;;14.10;99.90;;;;;;5009205;28;20210;-72
2022/10/06 01:42:18;;;;;;;7.87;5.10;;;14.00;99.90;;;;;;5006402;28;20246;-73
2022/10/06 01:44:45;;;;;;;7.07;4.80;;;14.10;99.90;;;;;;5007797;28;20668;-73
2022/10/06 01:47:13;;;;;;;7.50;4.87;;;14.00;99.90;;;;;;5007082;28;20218;-72
2022/10/06 01:49:40;;;;;;;7.20;4.87;;;14.00;99.90;;;;;;5008982;28;20214;-73
2022/10/06 01:52:08;;;;;;;6.00;4.43;;;14.10;99.90;;;;;;5004333;28;20558;-74
2022/10/06 01:54:36;;;;;;;9.63;4.90;;;14.10;99.90;;;;;;5008300;28;20215;-74
2022/10/06 01:57:07;;;;;;;8.03;4.67;;;14.10;99.90;;;;;;5008186;28;20544;-74
2022/10/06 01:59:34;;;;;;;7.90;4.13;;;14.10;99.90;;;;;;5006897;28;20199;-73
2022/10/06 02:02:01;;;;;;;6.30;5.10;;;14.10;99.90;;;;;;5006510;28;20202;-73
2022/10/06 02:04:29;;;;;;;4.47;3.60;;;14.10;99.90;;;;;;5008304;28;20227;-74
2022/10/06 02:06:57;;;;;;;7.33;4.10;;;14.10;99.90;;;;;;5007021;28;20290;-73
2022/10/06 02:09:24;;;;;;;5.93;4.40;;;14.10;99.90;;;;;;5005431;28;20217;-74
2022/10/06 02:11:53;;;;;;;4.40;4.00;;;14.10;99.90;;;;;;5004782;28;20322;-73
2022/10/06 02:14:21;;;;;;;5.80;4.13;;;14.10;99.90;;;;;;5006641;28;20703;-73
2022/10/06 02:16:49;;;;;;;5.03;4.10;;;14.10;99.90;;;;;;5006501;28;20273;-73
2022/10/06 02:19:17;;;;;;;5.67;4.50;;;14.10;99.90;;;;;;5007270;28;20218;-73
2022/10/06 02:21:44;;;;;;;6.23;4.40;;;14.20;99.90;;;;;;5008349;28;20209;-72
2022/10/06 02:24:11;;;;;;;5.53;3.93;;;14.10;99.90;;;;;;5007956;28;20623;-73
2022/10/06 02:26:38;;;;;;;3.80;3.37;;;14.20;99.90;;;;;;5006781;28;20207;-73
2022/10/06 02:29:06;;;;;;;4.70;3.90;;;14.10;99.90;;;;;;5006618;28;20200;-72
2022/10/06 02:31:35;;;;;;;5.83;3.93;;;14.10;99.90;;;;;;5006892;28;20210;-73
2022/10/06 02:34:02;;;;;;;9.80;4.60;;;14.20;99.90;;;;;;5007028;28;20302;-74
2022/10/06 02:36:29;;;;;;;5.67;3.87;;;14.10;99.90;;;;;;5006182;28;20559;-73
2022/10/06 02:38:56;;;;;;;4.63;4.20;;;14.10;99.90;;;;;;5006999;28;20199;-73
2022/10/06 02:41:24;;;;;;;7.33;4.20;;;14.10;99.90;;;;;;5004765;28;20206;-73
2022/10/06 02:43:54;;;;;;;5.60;4.20;;;14.10;99.90;;;;;;5008035;28;20245;-74
2022/10/06 02:46:22;;;;;;;4.23;3.70;;;14.10;99.90;;;;;;5006770;28;20202;-73
2022/10/06 02:48:53;;;;;;;3.50;3.20;;;14.10;99.90;;;;;;5008303;28;20201;-72
2022/10/06 02:51:21;;;;;;;4.23;3.80;;;14.10;99.90;;;;;;5009968;28;20200;-73
2022/10/06 02:53:50;;;;;;;4.47;3.43;;;14.10;99.90;;;;;;5009913;28;20214;-73
2022/10/06 02:56:20;;;;;;;4.70;3.50;;;14.10;99.90;;;;;;5009955;28;20679;-74
2022/10/06 02:58:49;;;;;;;7.67;4.07;;;14.00;99.90;;;;;;5011896;28;20289;-73
2022/10/06 03:01:36;;;;;;;5.50;4.27;;;14.00;99.90;;;;;;5009544;28;20214;-74
2022/10/06 03:04:11;;;;;;;4.10;3.77;;;14.00;99.90;;;;;;5009840;28;20230;-73
2022/10/06 03:06:42;;;;;;;5.80;4.30;;;14.00;99.90;;;;;;5010015;28;20699;-73
2022/10/06 03:09:17;;;;;;;6.77;4.67;;;14.00;99.90;;;;;;5009368;28;20692;-73
2022/10/06 03:11:45;;;;;;;3.80;3.40;;;13.90;99.90;;;;;;5009226;28;20210;-73
2022/10/06 03:14:17;;;;;;;4.10;3.70;;;13.90;99.90;;;;;;5009864;28;20221;-73
2022/10/06 03:16:44;;;;;;;4.70;3.80;;;13.90;99.90;;;;;;5009718;28;20206;-74
2022/10/06 03:19:19;;;;;;;4.70;4.13;;;13.90;99.90;;;;;;5009448;28;20211;-73
2022/10/06 03:21:48;;;;;;;8.77;4.10;;;13.90;99.90;;;;;;5009194;28;20198;-73
2022/10/06 03:24:16;;;;;;;4.50;3.67;;;13.90;99.90;;;;;;5009986;28;20197;-74
2022/10/06 03:26:47;;;;;;;4.67;3.93;;;13.90;99.90;;;;;;5008231;28;20198;-73
2022/10/06 03:29:16;;;;;;;4.30;3.73;;;13.90;99.90;;;;;;5008898;28;20199;-74
2022/10/06 03:31:49;;;;;;;5.17;4.17;;;13.90;99.90;;;;;;5009321;28;20199;-73
2022/10/06 03:34:16;;;;;;;4.83;4.13;;;13.90;99.90;;;;;;5008831;28;20745;-73
2022/10/06 03:36:46;;;;;;;5.20;4.10;;;13.90;99.90;;;;;;5008782;28;20206;-74
2022/10/06 03:39:14;;;;;;;5.07;3.93;;;13.90;99.90;;;;;;5009322;28;20749;-73
2022/10/06 03:41:41;;;;;;;4.53;3.77;;;13.90;99.90;;;;;;5009386;28;20198;-72
2022/10/06 03:44:10;;;;;;;3.57;3.20;;;13.90;99.90;;;;;;5008826;28;20244;-73
2022/10/06 03:46:40;;;;;;;3.30;3.00;;;13.90;99.90;;;;;;5009450;28;20265;-73
2022/10/06 03:49:08;;;;;;;3.23;2.83;;;13.90;99.90;;;;;;5009713;28;20214;-74
2022/10/06 03:51:38;;;;;;;3.87;3.20;;;13.90;99.90;;;;;;5008810;28;20602;-73
2022/10/06 03:54:09;;;;;;;4.17;3.63;;;13.90;99.90;;;;;;5009074;28;20682;-73
2022/10/06 03:56:39;;;;;;;4.80;3.03;;;14.00;99.90;;;;;;5008986;28;20201;-73
2022/10/06 03:59:09;;;;;;;3.43;3.13;;;14.00;99.90;;;;;;5009248;28;20206;-74
2022/10/06 04:01:40;;;;;;;2.83;2.63;;;14.00;99.90;;;;;;5007641;28;20210;-74
2022/10/06 04:04:09;;;;;;;3.00;2.70;;;14.10;99.90;;;;;;5008865;28;20262;-73
2022/10/06 04:06:38;;;;;;;2.77;2.57;;;14.10;99.90;;;;;;5007958;28;20196;-74
2022/10/06 04:09:11;;;;;;;3.40;2.50;;;14.20;99.90;;;;;;5008775;28;20217;-73
2022/10/06 04:11:39;;;;;;;4.47;3.53;;;14.20;99.90;;;;;;5007970;28;20214;-73
2022/10/06 04:14:11;;;;;;;2.83;2.63;;;14.20;99.90;;;;;;5008849;28;20219;-73
2022/10/06 04:16:42;;;;;;;2.70;2.50;;;14.30;99.90;;;;;;5009510;28;20205;-73
2022/10/06 04:19:11;;;;;;;3.53;2.90;;;14.30;99.90;;;;;;5015556;28;20714;-73
2022/10/06 04:21:50;;;;;;;3.97;2.80;;;14.30;99.90;;;;;;5006643;28;20203;-73
2022/10/06 04:24:25;;;;;;;2.60;2.40;;;14.30;99.90;;;;;;5009163;28;20190;-73
2022/10/06 04:27:26;;;;;;;3.50;2.87;;;14.30;99.90;;;;;;5008368;28;20233;-73
2022/10/06 04:29:40;;;;;;;2.80;2.60;;;14.30;99.90;;;;;;5007804;28;20205;-73
2022/10/06 04:32:07;;;;;;;2.53;2.33;;;14.40;99.90;;;;;;5010072;28;20195;-73
2022/10/06 04:34:36;;;;;;;6.73;3.70;;;14.40;99.90;;;;;;5008661;28;20215;-73
2022/10/06 04:37:03;;;;;;;3.90;2.83;;;14.40;99.90;;;;;;5007389;28;20287;-73
2022/10/06 04:39:32;;;;;;;2.83;2.63;;;14.40;99.90;;;;;;5007985;28;20207;-74
2022/10/06 04:42:00;;;;;;;1.97;1.87;;;14.50;99.90;;;;;;5007934;28;20286;-74
2022/10/06 04:44:30;;;;;;;4.60;3.00;;;14.50;99.90;;;;;;5021754;28;20203;-73
2022/10/06 04:47:00;;;;;;;4.57;3.10;;;14.50;99.90;;;;;;5008333;28;20199;-74
2022/10/06 04:49:27;;;;;;;3.80;3.50;;;14.50;99.90;;;;;;5008127;28;20202;-74
2022/10/06 04:51:56;;;;;;;4.77;3.30;;;14.60;99.90;;;;;;5008029;28;20630;-74
2022/10/06 04:54:24;;;;;;;4.33;3.00;;;14.60;99.90;;;;;;5006531;28;20230;-74
2022/10/06 04:56:57;;;;;;;3.13;2.83;;;14.60;99.90;;;;;;5008056;28;20748;-72
2022/10/06 05:00:21;;;;;;;5.13;3.40;;;14.60;99.90;;;;;;5007887;28;20203;-73
2022/10/06 05:02:16;;;;;;;5.63;3.70;;;14.60;99.90;;;;;;5007823;28;20195;-73
2022/10/06 05:04:44;;;;;;;3.30;3.00;;;14.60;99.90;;;;;;5007791;28;20722;-73
2022/10/06 05:07:12;;;;;;;4.10;2.93;;;14.60;99.90;;;;;;5008653;28;20199;-73
2022/10/06 05:09:40;;;;;;;4.50;3.87;;;14.70;99.90;;;;;;5007638;28;20211;-74
2022/10/06 05:12:11;;;;;;;4.97;3.30;;;14.70;99.90;;;;;;5007087;28;20212;-73
2022/10/06 05:14:40;;;;;;;8.70;3.80;;;14.70;99.90;;;;;;5006249;28;20262;-74
2022/10/06 05:17:07;;;;;;;4.30;3.50;;;14.70;99.90;;;;;;5007566;28;20682;-74
2022/10/06 05:19:36;;;;;;;4.93;3.70;;;14.80;99.90;;;;;;5007294;28;20650;-74
2022/10/06 05:22:03;;;;;;;3.90;3.43;;;14.80;99.90;;;;;;5007262;28;20636;-74
2022/10/06 05:24:32;;;;;;;5.00;3.00;;;14.80;99.90;;;;;;5007569;28;20264;-74
2022/10/06 05:27:01;;;;;;;3.60;3.20;;;14.80;99.90;;;;;;5006748;28;20686;-74
2022/10/06 05:29:30;;;;;;;3.30;2.47;;;14.80;99.90;;;;;;5006230;28;20192;-74
2022/10/06 05:31:58;;;;;;;3.37;2.40;;;14.80;99.90;;;;;;5008275;28;20199;-74
2022/10/06 05:34:27;;;;;;;2.23;2.13;;;14.80;99.90;;;;;;5007935;28;20233;-75
2022/10/06 05:36:54;;;;;;;4.43;3.20;;;14.90;99.90;;;;;;5008297;28;20276;-73
2022/10/06 05:39:21;;;;;;;5.27;3.63;;;14.90;99.90;;;;;;5006627;28;20211;-75
2022/10/06 05:41:58;;;;;;;7.00;3.67;;;14.90;99.90;;;;;;5006619;28;20677;-73
2022/10/06 05:44:32;;;;;;;3.40;3.10;;;14.90;99.90;;;;;;5007646;28;20205;-74
2022/10/06 05:47:03;;;;;;;4.37;3.53;;;14.90;99.90;;;;;;5007200;28;20202;-75
2022/10/06 05:49:31;;;;;;;4.87;4.00;;;14.90;99.90;;;;;;5007642;28;20230;-75
2022/10/06 05:52:01;;;;;;;4.03;3.13;;;14.90;99.90;;;;;;5007125;28;20226;-75
2022/10/06 05:54:34;;;;;;;3.30;2.80;;;14.90;99.90;;;;;;5007259;28;20249;-75
2022/10/06 05:57:05;;;;;;;3.80;2.80;;;15.00;99.90;;;;;;5006879;28;20549;-74
2022/10/06 05:59:35;;;;;;;2.73;2.53;;;15.00;99.90;;;;;;5006612;28;20350;-74
2022/10/06 06:02:04;;;;;;;3.80;3.13;;;15.00;99.90;;;;;;5006172;28;20305;-74
2022/10/06 06:04:35;;;;;;;5.53;3.00;;;15.00;99.90;;;;;;5006020;28;21015;-74
2022/10/06 06:07:02;;;;;;;3.20;2.90;;;15.10;99.90;;;;;;5006159;28;20206;-74
2022/10/06 06:09:30;;;;;;;3.73;2.90;;;15.10;99.90;;;;;;5007161;28;20533;-74
2022/10/06 06:12:02;;;;;;;2.43;2.23;;;15.10;99.90;;;;;;5006654;28;20199;-74
2022/10/06 06:17:49;;;;;;;3.50;2.90;;;15.20;99.90;;;;;;5006201;28;20559;-74
2022/10/06 06:20:16;;;;;;;4.87;3.20;;;15.20;99.90;;;;;;5006492;28;20272;-74
2022/10/06 06:22:43;;;;;;;2.80;2.53;;;15.20;99.90;;;;;;5007214;28;20195;-74
2022/10/06 06:25:11;;;;;;;2.27;2.07;;;15.20;99.90;;;;;;5009967;28;20199;-74
2022/10/06 06:27:42;;;;;;;2.30;2.10;;;15.30;99.90;;;;;;5009377;28;20281;-74
2022/10/06 06:30:11;;;;;;;1.93;1.77;;;15.40;99.90;;;;;;5009651;28;20202;-74
2022/10/06 06:32:39;;;;;;;1.70;1.60;;;15.40;99.90;;;;;;5008975;28;20196;-75
2022/10/06 06:35:09;;;;;;;1.47;1.37;;;15.50;99.90;;;;;;5010015;28;20263;-74
2022/10/06 06:37:36;;;;;;;1.80;1.70;;;15.60;99.90;;;;;;5010986;28;20211;-72
2022/10/06 06:40:06;;;;;;;1.70;1.60;;;15.70;99.90;;;;;;5009961;28;20413;-73
2022/10/06 06:42:37;;;;;;;1.67;1.57;;;15.80;99.90;;;;;;5010732;28;20591;-75
2022/10/06 06:45:23;;;;;;;2.30;1.50;;;15.80;99.90;;;;;;5008229;28;20191;-74
2022/10/06 06:48:02;;;;;;;2.27;1.47;;;15.90;99.90;;;;;;5010912;28;20199;-73
2022/10/06 06:50:30;;;;;;;1.70;1.60;;;15.90;99.90;;;;;;5010629;28;20195;-74
2022/10/06 06:53:00;;;;;;;6.27;1.50;;;16.00;99.90;;;;;;5009405;28;20198;-73
2022/10/06 06:55:27;;;;;;;3.27;1.80;;;16.00;99.90;;;;;;5011433;28;20680;-74
2022/10/06 06:57:54;;;;;;;1.47;1.37;;;16.10;99.90;;;;;;5012093;28;20809;-74
2022/10/06 07:00:23;;;;;;;1.90;1.80;;;16.20;99.90;;;;;;5009802;28;20225;-74
2022/10/06 07:02:59;;;;;;;1.20;1.20;;;16.20;99.90;;;;;;5010508;28;20217;-75
2022/10/06 07:05:35;;;;;;;1.80;1.30;;;16.20;99.90;;;;;;5009316;28;20230;-74
2022/10/06 07:08:02;;;;;;;1.80;1.67;;;16.30;99.90;;;;;;5009835;28;20203;-74
2022/10/06 07:10:34;;;;;;;2.23;1.40;;;16.30;99.90;;;;;;5009876;28;20199;-74
2022/10/06 07:13:05;;;;;;;1.10;1.10;;;16.30;99.90;;;;;;5009001;28;20203;-74
2022/10/06 07:26:38;;;;;;;2.10;1.47;;;16.50;99.90;;;;;;5009820;28;20195;-75
2022/10/06 07:29:06;;;;;;;1.20;1.20;;;16.50;99.90;;;;;;5010638;28;20188;-74
2022/10/06 07:31:37;;;;;;;1.30;1.20;;;16.50;99.90;;;;;;5009237;28;20570;-74
2022/10/06 07:34:07;;;;;;;1.80;1.50;;;16.60;99.90;;;;;;5009789;28;20187;-74
2022/10/06 07:36:34;;;;;;;1.20;1.20;;;16.60;99.90;;;;;;5009130;28;20680;-74
2022/10/06 07:39:01;;;;;;;1.50;1.43;;;16.70;99.90;;;;;;5009719;28;20204;-73
2022/10/06 07:41:34;;;;;;;1.70;1.60;;;16.70;99.90;;;;;;5008894;28;20306;-74
2022/10/06 07:44:05;;;;;;;1.73;1.63;;;16.80;99.90;;;;;;5009291;28;20230;-74
2022/10/06 07:46:38;;;;;;;1.77;1.50;;;16.80;99.90;;;;;;5008840;28;20203;-75
2022/10/06 07:49:10;;;;;;;1.33;1.30;;;16.80;99.90;;;;;;5009098;28;20279;-74
2022/10/06 07:51:37;;;;;;;1.50;1.40;;;16.80;99.90;;;;;;5008482;28;20549;-74
2022/10/06 07:54:07;;;;;;;1.50;1.40;;;16.90;99.90;;;;;;5009728;28;20200;-73
2022/10/06 07:56:43;;;;;;;1.27;1.27;;;16.90;99.90;;;;;;5008101;28;20740;-74
2022/10/06 07:59:10;;;;;;;1.43;1.33;;;16.90;99.90;;;;;;5010692;28;20199;-74
2022/10/06 08:01:48;;;;;;;3.93;1.67;;;16.90;99.90;;;;;;5010366;28;20202;-74
2022/10/06 08:04:15;;;;;;;1.90;1.57;;;17.00;99.90;;;;;;5007607;28;20763;-74
2022/10/06 08:06:46;;;;;;;1.30;1.23;;;17.20;99.90;;;;;;5007986;28;20684;-74
2022/10/06 08:09:13;;;;;;;2.27;1.20;;;17.30;99.90;;;;;;5008807;28;20197;-73
2022/10/06 08:11:46;;;;;;;1.27;1.17;;;17.30;99.90;;;;;;5009351;28;20208;-74
2022/10/06 08:14:16;;;;;;;1.03;0.80;;;17.30;99.90;;;;;;5010281;28;20225;-74
2022/10/06 08:16:45;;;;;;;1.03;0.93;;;17.30;99.90;;;;;;5009835;28;20227;-74
2022/10/06 08:19:13;;;;;;;1.90;0.87;;;17.20;99.90;;;;;;5009558;28;20744;-74
2022/10/06 08:21:40;;;;;;;1.97;0.90;;;17.20;99.90;;;;;;5008344;28;20513;-73
2022/10/06 08:24:08;;;;;;;0.73;0.73;;;17.20;99.90;;;;;;5008946;28;20208;-73
2022/10/06 08:26:35;;;;;;;1.03;0.70;;;17.20;99.90;;;;;;5009940;28;20627;-73
2022/10/06 08:29:03;;;;;;;0.80;0.80;;;17.20;99.90;;;;;;5007498;28;20696;-74
2022/10/06 08:31:31;;;;;;;3.50;0.90;;;17.20;99.90;;;;;;5008039;28;20575;-73
2022/10/06 08:34:00;;;;;;;1.37;0.70;;;17.30;99.90;;;;;;5008683;28;20615;-74
2022/10/06 08:36:28;;;;;;;1.83;0.80;;;17.30;99.90;;;;;;5009150;28;20224;-74
2022/10/06 08:38:55;;;;;;;2.35;1.00;;;17.30;99.90;;;;;;5008505;28;20671;-74
2022/10/06 08:41:24;;;;;;;2.23;0.70;;;17.30;99.90;;;;;;5006704;28;20206;-73
2022/10/06 08:44:03;;;;;;;1.00;0.90;;;17.30;99.90;;;;;;5008978;28;20563;-73
2022/10/06 08:46:39;;;;;;;2.80;1.00;;;17.40;99.90;;;;;;5009266;28;20206;-73
2022/10/06 08:49:15;;;;;;;2.70;1.00;;;17.40;99.90;;;;;;5008081;28;20673;-73
2022/10/06 08:51:53;;;;;;;1.30;0.80;;;17.40;99.90;;;;;;5009429;28;20669;-73
2022/10/06 08:54:29;;;;;;;2.57;0.70;;;17.40;99.90;;;;;;5006799;28;20209;-73
2022/10/06 08:57:05;;;;;;;1.65;0.80;;;17.30;99.90;;;;;;5009342;28;20213;-75
2022/10/06 08:59:34;;;;;;;2.23;0.77;;;17.30;99.90;;;;;;5006474;28;20259;-74
2022/10/06 09:02:06;;;;;;;0.87;0.53;;;17.40;99.90;;;;;;5008758;28;20241;-74
2022/10/06 09:04:35;;;;;;;1.17;0.70;;;17.40;99.90;;;;;;5009508;28;20238;-74
2022/10/06 09:07:05;;;;;;;2.25;0.80;;;17.40;99.90;;;;;;5009158;28;20182;-73
2022/10/06 09:09:52;;;;;;;2.33;1.10;;;17.40;99.90;;;;;;5007597;28;20665;-73
2022/10/06 09:12:27;;;;;;;0.70;0.70;;;17.40;99.90;;;;;;5008865;28;20205;-73
2022/10/06 09:15:01;;;;;;;1.40;0.80;;;17.50;99.90;;;;;;5006737;28;20201;-73
2022/10/06 09:17:39;;;;;;;2.00;0.83;;;17.50;99.60;;;;;;5008225;28;20306;-73
2022/10/06 09:20:19;;;;;;;2.83;0.83;;;17.60;99.50;;;;;;5006600;28;20183;-73
2022/10/06 09:22:49;;;;;;;1.10;0.63;;;17.60;99.40;;;;;;5006034;28;20286;-73
2022/10/06 09:25:24;;;;;;;1.70;0.80;;;17.70;99.10;;;;;;5007655;28;20594;-74
2022/10/06 09:27:57;;;;;;;3.67;0.82;;;17.70;98.80;;;;;;5007304;28;20182;-73
2022/10/06 09:30:25;;;;;;;3.10;0.75;;;17.70;98.60;;;;;;5007149;28;20206;-74
2022/10/06 09:32:58;;;;;;;1.40;0.82;;;17.90;98.50;;;;;;5009428;28;20198;-73
2022/10/06 09:35:28;;;;;;;3.23;0.90;;;17.90;98.10;;;;;;5008572;28;20214;-74
2022/10/06 09:37:58;;;;;;;4.10;1.17;;;18.00;98.00;;;;;;5007431;28;20299;-74
2022/10/06 09:40:36;;;;;;;2.10;0.77;;;18.00;97.50;;;;;;5004739;28;20663;-73
2022/10/06 09:43:16;;;;;;;1.42;0.75;;;18.10;96.90;;;;;;5005145;28;20313;-73
2022/10/06 09:45:43;;;;;;;1.65;0.80;;;18.20;96.70;;;;;;5007617;28;20194;-74
2022/10/06 09:48:20;;;;;;;0.80;0.70;;;18.60;96.50;;;;;;5008989;28;20195;-72
2022/10/06 09:51:08;;;;;;;3.20;1.08;;;18.80;96.20;;;;;;5006216;28;20237;-74
2022/10/06 09:53:38;;;;;;;2.30;1.35;;;18.90;94.70;;;;;;5005301;28;20576;-74
2022/10/06 09:56:13;;;;;;;2.40;1.10;;;19.20;94.50;;;;;;5007070;28;20207;-74
2022/10/06 09:58:53;;;;;;;2.80;1.40;;;20.40;93.60;;;;;;5010783;28;20278;-73
2022/10/06 10:01:24;;;;;;;1.10;1.00;;;22.00;91.90;;;;;;5010239;28;20198;-73
2022/10/06 10:03:56;;;;;;;2.10;1.38;;;23.70;90.60;;;;;;5010971;28;20318;-74
2022/10/06 10:06:27;;;;;;;2.60;0.98;;;25.10;83.90;;;;;;5010970;28;20197;-72
2022/10/06 10:09:28;;;;;;;3.22;0.93;;;25.60;79.10;;;;;;5008773;28;20206;-73
2022/10/06 10:12:30;;;;;;;0.80;0.80;;;26.10;74.50;;;;;;5010764;28;20202;-73
2022/10/06 10:15:05;;;;;;;1.48;0.80;;;26.40;72.00;;;;;;5009180;28;20202;-72
2022/10/06 10:17:42;;;;;;;1.67;1.08;;;27.20;67.60;;;;;;5011701;28;20690;-74
2022/10/06 10:20:35;;;;;;;0.88;0.85;;;27.40;64.80;;;;;;5010460;28;20225;-73
2022/10/06 10:23:22;;;;;;;1.77;0.95;;;28.10;62.90;;;;;;4988126;28;20204;-73
2022/10/06 10:26:25;;;;;;;2.20;0.98;;;28.90;60.30;;;;;;5010887;28;20273;-73
2022/10/06 10:29:20;;;;;;;3.75;1.02;;;29.60;57.40;;;;;;5025874;28;20261;-73
2022/10/06 10:31:57;;;;;;;3.92;0.93;;;29.70;55.30;;;;;;5010308;28;20330;-74
2022/10/06 10:34:43;;;;;;;3.08;1.00;;;28.40;55.00;;;;;;5010476;28;20280;-74
2022/10/06 10:37:14;;;;;;;14.02;0.93;;;27.10;55.50;;;;;;5009834;28;20734;-74
2022/10/06 10:39:49;;;;;;;2.97;1.08;;;26.00;56.40;;;;;;5010195;28;20201;-74
2022/10/06 10:42:23;;;;;;;2.15;0.73;;;25.50;58.20;;;;;;5011117;28;20730;-73
2022/10/06 10:44:57;;;;;;;1.65;0.80;;;25.60;58.90;;;;;;5009868;28;20203;-74
2022/10/06 10:47:28;;;;;;;2.85;1.13;;;25.10;59.10;;;;;;5012186;28;20195;-74
2022/10/06 10:50:04;;;;;;;0.85;0.80;;;24.60;59.50;;;;;;5011501;28;20253;-74
2022/10/06 10:52:37;;;;;;;2.28;0.98;;;24.00;60.20;;;;;;5011585;28;20245;-73
2022/10/06 10:55:25;;;;;;;0.77;0.77;;;23.70;59.90;;;;;;5010156;28;20294;-73
2022/10/06 10:57:55;;;;;;;3.65;1.30;;;23.30;60.30;;;;;;5012128;28;20687;-73
2022/10/06 11:00:27;;;;;;;1.08;0.80;;;22.90;60.20;;;;;;5011224;28;20659;-73
2022/10/06 11:02:57;;;;;;;1.92;1.10;;;22.40;61.20;;;;;;5011898;28;20218;-73
2022/10/06 11:05:35;;;;;;;4.85;1.00;;;22.00;61.60;;;;;;5009098;28;20227;-73
2022/10/06 11:08:10;;;;;;;1.88;0.80;;;21.70;62.00;;;;;;5008302;28;20199;-75
2022/10/06 11:10:46;;;;;;;1.00;0.80;;;21.30;62.90;;;;;;5008720;28;20737;-74
2022/10/06 11:13:20;;;;;;;2.42;0.98;;;21.10;63.60;;;;;;5012188;28;20755;-73
2022/10/06 11:16:07;;;;;;;2.85;0.90;;;20.80;64.10;;;;;;5011419;28;20191;-73
2022/10/06 11:18:47;;;;;;;2.25;1.00;;;20.70;64.90;;;;;;5023559;28;20759;-74
2022/10/06 11:21:20;;;;;;;3.03;1.27;;;20.50;65.50;;;;;;5010371;28;20195;-73
2022/10/06 11:23:52;;;;;;;3.33;1.17;;;20.30;65.90;;;;;;5010734;28;20359;-73
2022/10/06 11:26:54;;;;;;;1.08;0.85;;;20.20;66.40;;;;;;5011121;28;20257;-74
2022/10/06 11:29:34;;;;;;;2.05;0.70;;;20.00;67.50;;;;;;5009578;28;20667;-73
2022/10/06 11:32:10;;;;;;;1.10;1.00;;;19.90;67.80;;;;;;5009914;28;20217;-73
2022/10/06 11:34:38;;;;;;;1.83;0.88;;;19.90;67.90;;;;;;5011069;28;20191;-73
2022/10/06 11:37:18;;;;;;;1.42;0.63;;;19.80;67.90;;;;;;5010257;28;20203;-74
2022/10/06 11:39:57;;;;;;;1.40;0.85;;;19.80;68.10;;;;;;5011090;28;20599;-73
2022/10/06 11:42:37;;;;;;;1.63;0.90;;;19.80;68.50;;;;;;5010452;28;20198;-74
2022/10/06 11:45:13;;;;;;;2.15;1.08;;;19.80;68.80;;;;;;5007361;28;20675;-72
2022/10/06 11:48:03;;;;;;;2.95;1.35;;;19.70;68.90;;;;;;5007702;28;20261;-73
2022/10/06 11:50:35;;;;;;;4.47;1.00;;;19.70;68.70;;;;;;5008341;28;20277;-73
2022/10/06 11:53:04;;;;;;;2.35;0.90;;;19.70;68.80;;;;;;5010834;28;20219;-73
2022/10/06 11:55:34;;;;;;;2.97;0.90;;;19.70;69.30;;;;;;5008704;28;20202;-73
2022/10/06 11:58:16;;;;;;;2.13;1.05;;;19.60;68.30;;;;;;5010474;28;20679;-73
2022/10/06 12:00:49;;;;;;;2.30;1.00;;;19.70;68.60;;;;;;5008553;28;20549;-73
2022/10/06 12:04:03;;;;;;;1.80;0.95;;;19.70;68.80;;;;;;5007935;28;20313;-74
2022/10/06 12:06:59;;;;;;;0.90;0.65;;;19.60;69.00;;;;;;4910013;29;20202;-74
2022/10/06 12:09:51;;;;;;;1.30;0.88;;;19.60;69.40;;;;;;4930497;29;20199;-73
2022/10/06 12:12:55;;;;;;;1.60;1.08;;;19.50;69.90;;;;;;5001375;28;20671;-74
2022/10/06 12:16:06;;;;;;;1.85;0.90;;;19.40;70.40;;;;;;5008130;28;20309;-72
2022/10/06 12:18:44;;;;;;;1.45;0.82;;;19.40;70.80;;;;;;5010450;28;20211;-73
2022/10/06 12:21:32;;;;;;;2.05;1.13;;;19.90;71.10;;;;;;5007589;28;20198;-72
2022/10/06 12:24:05;;;;;;;3.40;1.23;;;20.50;70.60;;;;;;5006471;28;20207;-73
2022/10/06 12:26:48;;;;;;;4.30;0.93;;;20.80;69.70;;;;;;5009985;28;20187;-73
2022/10/06 12:29:35;;;;;;;2.38;0.88;;;20.90;69.40;;;;;;5009298;28;20196;-74
2022/10/06 12:32:20;;;;;;;2.90;1.00;;;21.10;69.70;;;;;;5008012;28;20970;-74
2022/10/06 12:34:58;;;;;;;2.45;1.35;;;21.90;68.30;;;;;;5008579;28;20199;-74
2022/10/06 12:37:40;;;;;;;2.67;1.10;;;22.50;66.90;;;;;;5006386;28;20234;-73
2022/10/06 12:40:46;;;;;;;1.58;1.00;;;22.50;66.50;;;;;;5008729;28;20200;-74
2022/10/06 12:43:35;;;;;;;3.30;1.23;;;22.20;66.50;;;;;;5006084;28;20209;-73
2022/10/06 12:46:06;;;;;;;1.25;0.85;;;21.60;65.40;;;;;;5008985;28;20687;-74
2022/10/06 12:48:41;;;;;;;2.75;0.88;;;21.40;65.80;;;;;;5008675;28;20200;-74
2022/10/06 12:51:29;;;;;;;2.85;1.30;;;21.70;66.00;;;;;;5005889;28;20196;-75
2022/10/06 12:54:03;;;;;;;3.72;1.25;;;22.00;65.20;;;;;;5007210;28;20187;-74
2022/10/06 12:56:35;;;;;;;4.88;1.63;;;22.40;64.80;;;;;;5008784;28;20191;-75
2022/10/06 12:59:25;;;;;;;2.70;0.77;;;23.20;63.40;;;;;;5005858;28;20199;-74
2022/10/06 13:01:55;;;;;;;1.42;0.77;;;24.40;62.00;;;;;;5008492;28;20698;-74
2022/10/06 13:04:36;;;;;;;1.48;0.73;;;24.80;60.00;;;;;;5009393;28;20715;-75
2022/10/06 13:07:11;;;;;;;1.98;1.13;;;24.20;59.20;;;;;;5009033;28;20213;-73
2022/10/06 13:09:38;;;;;;;1.08;0.70;;;23.50;59.10;;;;;;5009175;28;20225;-73
2022/10/06 13:12:29;;;;;;;1.38;0.77;;;23.10;59.80;;;;;;5006158;28;20209;-73
2022/10/06 13:15:13;;;;;;;5.22;1.00;;;22.70;60.60;;;;;;5008314;28;20191;-74
2022/10/06 13:17:42;;;;;;;4.70;2.25;;;22.20;60.60;;;;;;5007501;28;20199;-74
2022/10/06 13:20:26;;;;;;;2.92;1.45;;;21.70;61.00;;;;;;5008867;28;20574;-73
2022/10/06 13:22:58;;;;;;;1.98;1.00;;;21.30;61.80;;;;;;5009098;28;20205;-72
2022/10/06 13:25:35;;;;;;;1.50;0.90;;;21.10;62.40;;;;;;5007369;28;20204;-73
2022/10/06 13:28:03;;;;;;;2.53;0.95;;;20.90;62.80;;;;;;5006036;28;20194;-74